Time;durP1;ratioP1;P1;durP2;ratioP2;P2;SDS_P1;SDS_P2;PMS_P1;PMS_P2;Temp;Humidity;BMP_temperature;BMP_pressure;BME280_temperature;BME280_humidity;BME280_pressure;Samples;Min_cycle;Max_cycle;Signal;HPM_P1;HPM_P2
2022/05/17 04:53:44;;;;;;;4.50;2.78;;;;;;;;;;4918405;23;20143;-74
2022/05/17 04:56:10;;;;;;;3.08;2.70;;;;;;;;;;4917590;29;20079;-74
2022/05/17 04:58:37;;;;;;;2.50;2.28;;;;;;;;;;4917597;29;20028;-74
2022/05/17 05:01:03;;;;;;;3.25;2.95;;;;;;;;;;4917579;29;20032;-74
2022/05/17 05:03:29;;;;;;;2.67;2.45;;;;;;;;;;4917724;29;20064;-76
2022/05/17 05:05:55;;;;;;;7.57;3.20;;;;;;;;;;4936813;29;20111;-75
2022/05/17 05:08:21;;;;;;;4.47;3.15;;;;;;;;;;4936687;29;20122;-75
2022/05/17 05:10:47;;;;;;;4.90;3.08;;;;;;;;;;4936453;29;20040;-76
2022/05/17 05:13:17;;;;;;;4.30;3.63;;;;;;;;;;4936449;29;20028;-75
2022/05/17 05:15:43;;;;;;;4.25;3.33;;;;;;;;;;4936516;29;20039;-75
2022/05/17 05:18:08;;;;;;;4.80;3.80;;;;;;;;;;4936511;29;20371;-75
2022/05/17 05:20:34;;;;;;;5.82;3.85;;;;;;;;;;4936138;29;20024;-75
2022/05/17 05:23:01;;;;;;;4.50;3.50;;;;;;;;;;4936548;29;20047;-74
2022/05/17 05:25:27;;;;;;;6.00;3.83;;;;;;;;;;4936291;29;20031;-76
2022/05/17 05:27:53;;;;;;;7.80;3.65;;;;;;;;;;4939042;29;20056;-74
2022/05/17 05:30:19;;;;;;;5.38;3.58;;;;;;;;;;4942594;29;20142;-74
2022/05/17 05:32:46;;;;;;;5.97;3.75;;;;;;;;;;4942576;29;20075;-75
2022/05/17 05:35:18;;;;;;;4.25;3.58;;;;;;;;;;4942959;29;20030;-73
2022/05/17 05:37:44;;;;;;;4.60;3.65;;;;;;;;;;4942503;29;20053;-77
2022/05/17 05:40:11;;;;;;;4.95;3.40;;;;;;;;;;4942996;29;20035;-75
2022/05/17 05:42:38;;;;;;;4.13;3.42;;;;;;;;;;4942682;29;20053;-75
2022/05/17 05:45:04;;;;;;;8.25;4.72;;;;;;;;;;4942002;29;20431;-75
2022/05/17 17:39:13;;;;;;;4.13;2.97;;;;;;;;;;4972398;28;20125;-76
2022/05/17 17:41:39;;;;;;;5.22;3.08;;;;;;;;;;4974312;28;20367;-77
2022/05/17 17:44:06;;;;;;;4.13;2.97;;;;;;;;;;4974365;28;20440;-75
2022/05/17 17:46:33;;;;;;;3.90;3.08;;;;;;;;;;4974483;28;20041;-78
2022/05/17 17:48:59;;;;;;;3.60;2.83;;;;;;;;;;4974434;28;20034;-75
2022/05/17 17:51:24;;;;;;;4.15;3.17;;;;;;;;;;4974909;28;20019;-75
2022/05/17 17:53:50;;;;;;;8.15;3.17;;;;;;;;;;4974748;28;20062;-75
2022/05/17 17:56:21;;;;;;;4.32;2.88;;;;;;;;;;4974501;28;20023;-77
2022/05/17 17:58:47;;;;;;;6.68;3.10;;;;;;;;;;4974701;28;20039;-74
2022/05/17 18:01:13;;;;;;;3.83;3.30;;;;;;;;;;4974472;28;20089;-75
2022/05/17 18:03:39;;;;;;;5.47;2.60;;;;;;;;;;4974634;28;20030;-76
2022/05/17 18:06:05;;;;;;;6.85;3.20;;;;;;;;;;4973748;28;20130;-75
2022/05/17 18:08:30;;;;;;;3.45;3.13;;;;;;;;;;4957124;28;20493;-75
2022/05/17 18:10:56;;;;;;;4.97;3.10;;;;;;;;;;4974314;28;20035;-76
2022/05/17 18:13:28;;;;;;;4.50;3.33;;;;;;;;;;4974901;28;20030;-78
2022/05/17 18:15:55;;;;;;;4.40;3.10;;;;;;;;;;4974238;28;20102;-75
2022/05/17 18:18:21;;;;;;;3.92;3.10;;;;;;;;;;4974306;28;20469;-77
2022/05/17 18:20:47;;;;;;;5.53;3.05;;;;;;;;;;4956913;28;20031;-76
2022/05/17 18:23:12;;;;;;;4.88;3.15;;;;;;;;;;4956897;28;20102;-76
2022/05/17 18:25:39;;;;;;;5.82;3.70;;;;;;;;;;4974218;28;20050;-77
2022/05/17 18:28:10;;;;;;;5.28;3.78;;;;;;;;;;4974424;28;20042;-75
2022/05/17 18:30:36;;;;;;;4.30;3.67;;;;;;;;;;4974258;28;20019;-75
2022/05/17 18:33:04;;;;;;;4.60;3.25;;;;;;;;;;4974202;28;20097;-76
2022/05/17 18:35:34;;;;;;;5.90;3.30;;;;;;;;;;4976352;28;20047;-75
2022/05/17 18:38:01;;;;;;;5.28;3.50;;;;;;;;;;4977702;28;20031;-77
2022/05/17 18:40:27;;;;;;;4.95;3.50;;;;;;;;;;4977266;28;20374;-75
2022/05/17 18:42:52;;;;;;;4.78;3.15;;;;;;;;;;4977542;28;20054;-77
2022/05/17 18:45:18;;;;;;;4.50;3.58;;;;;;;;;;4977720;28;20358;-78
2022/05/17 18:47:50;;;;;;;3.50;3.20;;;;;;;;;;4977819;28;20058;-78
2022/05/17 18:50:18;;;;;;;4.97;2.95;;;;;;;;;;4977295;28;20054;-75
2022/05/17 18:52:48;;;;;;;4.90;3.28;;;;;;;;;;4977338;28;20023;-79
2022/05/17 18:55:23;;;;;;;6.22;3.88;;;;;;;;;;4977524;28;20035;-76
2022/05/17 18:57:49;;;;;;;6.15;3.20;;;;;;;;;;4977466;28;20037;-77
2022/05/17 19:00:22;;;;;;;10.82;8.32;;;;;;;;;;4977121;28;20030;-78
2022/05/17 19:02:49;;;;;;;5.75;4.93;;;;;;;;;;4977375;28;20038;-77
2022/05/17 19:05:18;;;;;;;7.30;5.28;;;;;;;;;;4977063;28;20359;-78
2022/05/17 19:15:55;;;;;;;5.43;3.55;;;;;;;;;;4977229;28;20129;-75
2022/05/17 19:18:22;;;;;;;6.28;3.30;;;;;;;;;;4977075;28;20109;-76
2022/05/17 19:20:48;;;;;;;8.25;3.10;;;;;;;;;;4976853;28;20081;-76
2022/05/17 19:23:14;;;;;;;4.07;3.13;;;;;;;;;;4977089;28;20034;-79
2022/05/17 19:25:39;;;;;;;4.90;3.25;;;;;;;;;;4977000;28;20117;-76
2022/05/17 19:28:05;;;;;;;5.00;3.30;;;;;;;;;;4976769;28;20031;-78
2022/05/17 19:30:32;;;;;;;5.03;3.13;;;;;;;;;;4976968;28;20034;-75
2022/05/17 19:32:58;;;;;;;6.45;4.53;;;;;;;;;;4966034;28;20067;-79
2022/05/17 19:35:31;;;;;;;7.07;3.60;;;;;;;;;;4957528;29;20031;-79
2022/05/17 19:40:42;;;;;;;4.70;3.78;;;;;;;;;;4956945;28;20529;-75
2022/05/17 19:43:08;;;;;;;5.18;3.80;;;;;;;;;;4957504;29;20056;-80
2022/05/17 19:45:37;;;;;;;5.07;4.13;;;;;;;;;;4939750;29;20390;-81
2022/05/17 19:48:09;;;;;;;4.75;3.67;;;;;;;;;;4956995;28;20023;-79
2022/05/17 19:50:38;;;;;;;4.95;3.58;;;;;;;;;;4966723;28;20044;-74
2022/05/17 19:53:05;;;;;;;5.63;3.97;;;;;;;;;;4984979;28;20019;-78
2022/05/17 19:55:31;;;;;;;5.38;3.60;;;;;;;;;;4975835;28;20042;-75
2022/05/17 19:57:56;;;;;;;5.40;3.35;;;;;;;;;;4976192;28;20489;-73
2022/05/17 20:00:24;;;;;;;3.70;3.30;;;;;;;;;;4976038;28;20058;-76
2022/05/17 20:02:51;;;;;;;5.05;4.30;;;;;;;;;;4975813;28;20066;-77
2022/05/17 20:05:17;;;;;;;6.78;4.30;;;;;;;;;;4975788;28;20033;-74
2022/05/17 20:07:43;;;;;;;4.85;3.72;;;;;;;;;;4976031;28;20042;-78
2022/05/17 20:10:09;;;;;;;6.45;4.05;;;;;;;;;;4975963;28;20023;-78
2022/05/17 20:12:36;;;;;;;5.20;3.63;;;;;;;;;;4975789;28;20031;-76
2022/05/17 20:15:02;;;;;;;6.85;3.80;;;;;;;;;;4975775;28;20027;-76
2022/05/17 20:17:28;;;;;;;5.55;4.00;;;;;;;;;;4975819;28;20462;-77
2022/05/17 20:19:53;;;;;;;5.95;4.20;;;;;;;;;;4967819;28;20110;-75
2022/05/17 20:22:19;;;;;;;3.72;3.42;;;;;;;;;;4973846;28;20030;-78
2022/05/17 20:24:47;;;;;;;5.65;3.13;;;;;;;;;;4975530;28;20049;-79
2022/05/17 20:27:12;;;;;;;6.15;3.67;;;;;;;;;;4975636;28;20023;-78
2022/05/17 20:29:38;;;;;;;6.20;3.78;;;;;;;;;;4974244;28;20030;-77
2022/05/17 20:32:06;;;;;;;5.88;3.95;;;;;;;;;;4965506;28;19918;-77
2022/05/17 20:34:31;;;;;;;4.18;3.42;;;;;;;;;;4975236;28;20026;-74
2022/05/17 20:36:57;;;;;;;7.13;4.18;;;;;;;;;;4975460;28;20041;-78
2022/05/17 20:39:26;;;;;;;4.80;3.80;;;;;;;;;;4974885;28;20035;-77
2022/05/17 20:41:55;;;;;;;3.63;3.30;;;;;;;;;;4975284;28;20050;-78
2022/05/17 20:44:20;;;;;;;4.50;3.70;;;;;;;;;;4975403;28;20386;-74
2022/05/17 20:49:30;;;;;;;5.95;3.63;;;;;;;;;;4975249;28;20450;-79
2022/05/17 20:51:56;;;;;;;4.75;3.35;;;;;;;;;;4975151;28;20059;-79
2022/05/17 20:54:21;;;;;;;5.30;3.85;;;;;;;;;;4975267;28;20023;-76
2022/05/17 20:56:48;;;;;;;6.90;3.40;;;;;;;;;;4974975;28;20030;-79
2022/05/17 20:59:14;;;;;;;4.07;3.03;;;;;;;;;;4974035;28;20491;-79
2022/05/17 21:01:39;;;;;;;;;;;;;;;;;;4975302;28;20397;-78
2022/05/17 21:04:06;;;;;;;4.20;3.40;;;;;;;;;;4975253;28;19914;-80
2022/05/17 21:06:36;;;;;;;;;;;;;;;;;;4975238;28;20469;-75
2022/05/17 21:09:02;;;;;;;;;;;;;;;;;;4975289;28;20006;-78
2022/05/17 21:11:27;;;;;;;;;;;;;;;;;;4975344;28;19921;-78
2022/05/17 21:13:53;;;;;;;;;;;;;;;;;;4975540;28;19921;-78
2022/05/17 21:16:20;;;;;;;;;;;;;;;;;;4969913;28;19926;-78
2022/05/17 21:18:45;;;;;;;;;;;;;;;;;;4955924;28;19926;-79
2022/05/17 21:21:10;;;;;;;;;;;;;;;;;;4958580;28;19922;-79
